createdAt,value
2017-11-22T00:00:02.857Z,2.2
2017-11-22T00:15:03.467Z,1.9
2017-11-22T00:30:03.168Z,1.9
2017-11-22T00:45:02.802Z,1.8
2017-11-22T01:00:03.404Z,1.9
2017-11-22T01:15:02.930Z,1.8
2017-11-22T01:30:02.646Z,1.5
2017-11-22T01:45:03.229Z,1.1
2017-11-22T02:00:02.909Z,1.1
2017-11-22T02:15:03.475Z,1.1
2017-11-22T02:30:03.230Z,1.1
2017-11-22T02:45:02.993Z,0.9
2017-11-22T03:00:02.605Z,0.8
2017-11-22T03:15:03.300Z,1.1
2017-11-22T03:30:02.974Z,0.9
2017-11-22T03:45:02.533Z,0.9
2017-11-22T04:00:03.159Z,0.6
2017-11-22T04:15:02.767Z,0.4
2017-11-22T04:30:03.398Z,0.5
2017-11-22T04:45:02.926Z,0.6
2017-11-22T05:00:02.519Z,0.6
2017-11-22T05:15:03.126Z,0.5
2017-11-22T05:30:02.790Z,0.4
2017-11-22T05:45:03.344Z,0.4
2017-11-22T06:00:02.926Z,0.2
2017-11-22T06:15:02.508Z,0.2
2017-11-22T06:30:03.297Z,0.1
2017-11-22T06:45:02.883Z,0.1
2017-11-22T07:00:03.458Z,0.2
2017-11-22T07:15:03.012Z,0.2
2017-11-22T07:30:02.662Z,0.5
2017-11-22T07:45:03.266Z,0.5
2017-11-22T08:00:02.825Z,1
2017-11-22T08:15:03.377Z,1.6
2017-11-22T08:30:03.026Z,2.5
2017-11-22T08:45:02.625Z,3.1
2017-11-22T09:00:03.179Z,3.9
2017-11-22T09:15:02.780Z,4.2
2017-11-22T09:30:03.416Z,5.1
2017-11-22T09:45:03.002Z,5.8
2017-11-22T10:00:02.599Z,6.3
2017-11-22T10:15:03.142Z,7.1
2017-11-22T10:30:02.818Z,7.6
2017-11-22T10:45:03.451Z,8.2
2017-11-22T11:00:03.009Z,9.1
2017-11-22T11:15:02.580Z,9.6
2017-11-22T11:30:03.222Z,10.2
2017-11-22T11:45:02.864Z,11
2017-11-22T12:00:03.414Z,11.2
2017-11-22T12:15:02.978Z,11.6
2017-11-22T12:30:02.615Z,11.9
2017-11-22T12:45:03.221Z,12.2
2017-11-22T13:00:02.807Z,12.2
2017-11-22T13:15:03.396Z,12.1
2017-11-22T13:30:03.040Z,11.7
2017-11-22T13:45:02.634Z,12.1
2017-11-22T14:00:03.213Z,11.8
2017-11-22T14:15:02.790Z,11.1
2017-11-22T14:30:03.406Z,10.6
2017-11-22T14:45:03.016Z,10.6
2017-11-22T15:00:02.580Z,10
2017-11-22T15:15:03.147Z,8.9
2017-11-22T15:30:02.838Z,8.1
2017-11-22T15:45:03.431Z,7.5
2017-11-22T16:00:03.020Z,6.7
2017-11-22T16:15:02.685Z,6.3
2017-11-22T16:30:03.346Z,5.8
2017-11-22T16:45:02.999Z,5.5
2017-11-22T17:00:02.594Z,5.1
2017-11-22T17:15:03.183Z,4.7
2017-11-22T17:30:02.881Z,4.6
2017-11-22T17:45:03.461Z,4
2017-11-22T18:00:03.029Z,3.8
2017-11-22T18:15:02.590Z,3.7
2017-11-22T18:30:03.374Z,3.2
2017-11-22T18:45:02.956Z,3.2
2017-11-22T19:00:02.529Z,2.9
2017-11-22T19:15:03.114Z,2.1
2017-11-22T19:30:02.873Z,2.4
2017-11-22T19:45:03.459Z,2.6
2017-11-22T20:00:03.101Z,1.7
2017-11-22T20:15:02.714Z,1.7
2017-11-22T20:30:03.348Z,1.6
2017-11-22T20:45:03.060Z,1.4
2017-11-22T21:00:02.698Z,0.9
2017-11-22T21:15:03.264Z,1.2
2017-11-22T21:30:03.357Z,0.8
2017-11-22T21:45:02.920Z,0.6
2017-11-22T22:00:02.571Z,0.9
2017-11-22T22:15:03.145Z,0.2
2017-11-22T22:30:02.809Z,0.2
2017-11-22T22:45:03.374Z,0.1
2017-11-22T23:00:02.996Z,0.1
2017-11-22T23:15:02.587Z,0.2
2017-11-22T23:30:03.274Z,0.1
2017-11-22T23:45:02.855Z,-0.4
